SWA5005 KDAL-KOMA
Flight info
| Callsign | SWA5005 |
|---|---|
| Flight time | 1h 21m |
| Altitude | 36000 |
| Route | SWTSR7 ADM PER HTHWY TIMMO1 |
| Aircraft | B737/M-SDE2E3GIJ4RWZ/LB1D1 |
Departure
| Time | 2026-05-05 19:17 |
|---|---|
| Airport | Dallas Love Field (KDAL) |
Arrival
| Time | 2026-05-05 20:38 |
|---|---|
| Airport | Eppley Airfield (KOMA) |
| Time | Latitude | Longitude | Altitude | Speed | Heading |
|---|---|---|---|---|---|
| 2026-05-05 18:57 | 32.84644 | -96.85139 | 483 ft | 0 kts | 180° |
| 2026-05-05 19:09 | 32.84663 | -96.85139 | 483 ft | 4 kts | 180° |
| 2026-05-05 19:10 | 32.84690 | -96.85139 | 481 ft | 4 kts | 180° |
| 2026-05-05 19:10 | 32.84696 | -96.85139 | 480 ft | 1 kts | 180° |
| 2026-05-05 19:12 | 32.84693 | -96.85143 | 479 ft | 1 kts | 227° |
| 2026-05-05 19:12 | 32.84698 | -96.85150 | 478 ft | 2 kts | 314° |
| 2026-05-05 19:13 | 32.84722 | -96.85183 | 480 ft | 8 kts | 304° |
| 2026-05-05 19:13 | 32.84740 | -96.85271 | 480 ft | 14 kts | 271° |
| 2026-05-05 19:13 | 32.84667 | -96.85322 | 479 ft | 14 kts | 187° |
| 2026-05-05 19:13 | 32.84607 | -96.85387 | 483 ft | 13 kts | 266° |
| 2026-05-05 19:14 | 32.84620 | -96.85491 | 478 ft | 13 kts | 302° |
| 2026-05-05 19:14 | 32.84680 | -96.85567 | 483 ft | 12 kts | 312° |
| 2026-05-05 19:14 | 32.84748 | -96.85651 | 483 ft | 17 kts | 315° |
| 2026-05-05 19:14 | 32.84849 | -96.85761 | 483 ft | 21 kts | 317° |
| 2026-05-05 19:15 | 32.84953 | -96.85882 | 483 ft | 21 kts | 314° |
| 2026-05-05 19:15 | 32.85056 | -96.85998 | 482 ft | 20 kts | 313° |
| 2026-05-05 19:15 | 32.85153 | -96.86112 | 482 ft | 19 kts | 315° |
| 2026-05-05 19:15 | 32.85216 | -96.86219 | 482 ft | 13 kts | 246° |
| 2026-05-05 19:16 | 32.85155 | -96.86300 | 480 ft | 13 kts | 225° |
| 2026-05-05 19:16 | 32.85082 | -96.86287 | 480 ft | 13 kts | 133° |
| 2026-05-05 19:16 | 32.84923 | -96.86103 | 482 ft | 65 kts | 136° |
| 2026-05-05 19:16 | 32.84416 | -96.85519 | 482 ft | 132 kts | 136° |
| 2026-05-05 19:17 | 32.83585 | -96.84689 | 632 ft | 171 kts | 144° |
| 2026-05-05 19:17 | 32.82631 | -96.83752 | 1188 ft | 181 kts | 146° |
| 2026-05-05 19:17 | 32.81763 | -96.82754 | 2209 ft | 164 kts | 139° |
| 2026-05-05 19:17 | 32.81008 | -96.81754 | 3024 ft | 166 kts | 137° |
| 2026-05-05 19:18 | 32.80213 | -96.80629 | 3367 ft | 194 kts | 137° |
| 2026-05-05 19:18 | 32.79251 | -96.79334 | 3629 ft | 224 kts | 137° |
| 2026-05-05 19:18 | 32.78171 | -96.77924 | 4104 ft | 235 kts | 138° |
| 2026-05-05 19:18 | 32.77039 | -96.76477 | 4626 ft | 247 kts | 138° |
| 2026-05-05 19:19 | 32.75841 | -96.74964 | 5411 ft | 248 kts | 139° |
| 2026-05-05 19:19 | 32.74628 | -96.73523 | 6132 ft | 257 kts | 141° |
| 2026-05-05 19:19 | 32.73309 | -96.72010 | 6698 ft | 269 kts | 141° |
| 2026-05-05 19:19 | 32.71948 | -96.70445 | 7407 ft | 278 kts | 141° |
| 2026-05-05 19:20 | 32.70530 | -96.68807 | 8131 ft | 288 kts | 140° |
| 2026-05-05 19:20 | 32.69134 | -96.67057 | 8973 ft | 299 kts | 130° |
| 2026-05-05 19:20 | 32.68292 | -96.64726 | 9706 ft | 321 kts | 101° |
| 2026-05-05 19:20 | 32.68156 | -96.62043 | 10409 ft | 334 kts | 92° |
| 2026-05-05 19:21 | 32.68137 | -96.59170 | 10657 ft | 362 kts | 88° |
| 2026-05-05 19:21 | 32.68790 | -96.56199 | 10929 ft | 384 kts | 59° |
| 2026-05-05 19:21 | 32.70527 | -96.53805 | 11591 ft | 384 kts | 31° |
| 2026-05-05 19:21 | 32.72848 | -96.52297 | 12447 ft | 381 kts | 19° |
| 2026-05-05 19:22 | 32.75285 | -96.51026 | 13257 ft | 383 kts | 15° |
| 2026-05-05 19:22 | 32.77841 | -96.50086 | 13961 ft | 384 kts | 6° |
| 2026-05-05 19:22 | 32.80455 | -96.49925 | 14656 ft | 372 kts | 344° |
| 2026-05-05 19:22 | 32.82887 | -96.50789 | 15493 ft | 360 kts | 327° |
| 2026-05-05 19:23 | 32.84962 | -96.52379 | 16258 ft | 352 kts | 311° |
| 2026-05-05 19:23 | 32.86736 | -96.54379 | 17052 ft | 352 kts | 308° |
| 2026-05-05 19:23 | 32.88464 | -96.56467 | 17841 ft | 356 kts | 307° |
| 2026-05-05 19:23 | 32.90197 | -96.58596 | 18539 ft | 359 kts | 306° |
| 2026-05-05 19:24 | 32.91936 | -96.60728 | 19313 ft | 359 kts | 307° |
| 2026-05-05 19:24 | 32.93675 | -96.62844 | 20155 ft | 357 kts | 306° |
| 2026-05-05 19:24 | 32.95415 | -96.64950 | 20965 ft | 357 kts | 306° |
| 2026-05-05 19:24 | 32.97161 | -96.67056 | 21710 ft | 358 kts | 306° |
| 2026-05-05 19:25 | 32.98914 | -96.69165 | 22471 ft | 358 kts | 306° |
| 2026-05-05 19:25 | 33.00665 | -96.71269 | 23202 ft | 358 kts | 306° |
| 2026-05-05 19:25 | 33.02404 | -96.73360 | 23765 ft | 360 kts | 306° |
| 2026-05-05 19:25 | 33.04177 | -96.75493 | 24229 ft | 364 kts | 306° |
| 2026-05-05 19:26 | 33.05962 | -96.77641 | 24714 ft | 366 kts | 306° |
| 2026-05-05 19:26 | 33.07763 | -96.79809 | 25231 ft | 368 kts | 306° |
| 2026-05-05 19:26 | 33.09570 | -96.81983 | 25733 ft | 371 kts | 306° |
| 2026-05-05 19:26 | 33.11387 | -96.84172 | 26191 ft | 373 kts | 306° |
| 2026-05-05 19:27 | 33.13222 | -96.86382 | 26649 ft | 376 kts | 306° |
| 2026-05-05 19:27 | 33.15073 | -96.88614 | 27088 ft | 379 kts | 306° |
| 2026-05-05 19:27 | 33.16932 | -96.90857 | 27522 ft | 381 kts | 306° |
| 2026-05-05 19:27 | 33.18803 | -96.93115 | 27963 ft | 383 kts | 306° |
| 2026-05-05 19:28 | 33.20684 | -96.95386 | 28383 ft | 386 kts | 305° |
| 2026-05-05 19:28 | 33.22574 | -96.97671 | 28773 ft | 388 kts | 305° |
| 2026-05-05 19:28 | 33.24483 | -96.99980 | 29162 ft | 391 kts | 305° |
| 2026-05-05 19:28 | 33.26399 | -97.02298 | 29555 ft | 394 kts | 305° |
| 2026-05-05 19:29 | 33.28329 | -97.04636 | 29906 ft | 396 kts | 305° |
| 2026-05-05 19:29 | 33.30271 | -97.06990 | 30215 ft | 398 kts | 305° |
| 2026-05-05 19:29 | 33.32222 | -97.09355 | 30536 ft | 400 kts | 305° |
| 2026-05-05 19:29 | 33.34172 | -97.11719 | 30951 ft | 399 kts | 305° |
| 2026-05-05 19:30 | 33.36109 | -97.14068 | 31425 ft | 396 kts | 305° |
| 2026-05-05 19:30 | 33.38044 | -97.16417 | 31892 ft | 395 kts | 304° |
| 2026-05-05 19:30 | 33.39962 | -97.18748 | 32351 ft | 393 kts | 304° |
| 2026-05-05 19:30 | 33.41902 | -97.21059 | 32793 ft | 397 kts | 309° |
| 2026-05-05 19:31 | 33.44286 | -97.22905 | 33219 ft | 420 kts | 322° |
| 2026-05-05 19:31 | 33.47083 | -97.24124 | 33688 ft | 437 kts | 333° |
| 2026-05-05 19:31 | 33.50184 | -97.24580 | 34021 ft | 465 kts | 348° |
| 2026-05-05 19:31 | 33.53444 | -97.24354 | 34413 ft | 471 kts | 352° |
| 2026-05-05 19:32 | 33.56706 | -97.23979 | 34763 ft | 473 kts | 353° |
| 2026-05-05 19:32 | 33.59982 | -97.23552 | 35105 ft | 473 kts | 353° |
| 2026-05-05 19:32 | 33.63250 | -97.23124 | 35489 ft | 470 kts | 352° |
| 2026-05-05 19:32 | 33.66505 | -97.22723 | 35803 ft | 471 kts | 352° |
| 2026-05-05 19:33 | 33.73074 | -97.21962 | 35791 ft | 474 kts | 352° |
| 2026-05-05 19:33 | 33.79595 | -97.21194 | 35767 ft | 466 kts | 350° |
| 2026-05-05 19:34 | 33.86062 | -97.20571 | 35778 ft | 465 kts | 350° |
| 2026-05-05 19:35 | 33.95709 | -97.19564 | 35747 ft | 465 kts | 351° |
| 2026-05-05 19:35 | 34.02172 | -97.18859 | 35733 ft | 466 kts | 351° |
| 2026-05-05 19:36 | 34.08639 | -97.18164 | 35745 ft | 468 kts | 351° |
| 2026-05-05 19:36 | 34.15140 | -97.17450 | 35745 ft | 469 kts | 351° |
| 2026-05-05 19:37 | 34.21649 | -97.16755 | 35738 ft | 468 kts | 350° |
| 2026-05-05 19:37 | 34.28090 | -97.16549 | 35733 ft | 459 kts | 345° |
| 2026-05-05 19:38 | 34.34462 | -97.16645 | 35730 ft | 458 kts | 345° |
| 2026-05-05 19:38 | 34.40846 | -97.16716 | 35740 ft | 458 kts | 345° |
| 2026-05-05 19:39 | 34.47222 | -97.16725 | 35740 ft | 458 kts | 345° |
| 2026-05-05 19:39 | 34.53597 | -97.16706 | 35776 ft | 458 kts | 346° |
| 2026-05-05 19:40 | 34.59970 | -97.16683 | 35787 ft | 458 kts | 346° |
| 2026-05-05 19:40 | 34.66337 | -97.16660 | 35793 ft | 457 kts | 345° |
| 2026-05-05 19:41 | 34.72696 | -97.16638 | 35793 ft | 456 kts | 345° |
| 2026-05-05 19:41 | 34.79044 | -97.16620 | 35789 ft | 456 kts | 345° |
| 2026-05-05 19:42 | 34.85344 | -97.16602 | 35804 ft | 456 kts | 345° |
| 2026-05-05 19:42 | 34.91687 | -97.16583 | 35796 ft | 456 kts | 345° |
| 2026-05-05 19:43 | 34.98024 | -97.16565 | 35780 ft | 455 kts | 345° |
| 2026-05-05 19:43 | 35.04372 | -97.16544 | 35779 ft | 456 kts | 345° |
| 2026-05-05 19:44 | 35.10717 | -97.16524 | 35791 ft | 456 kts | 345° |
| 2026-05-05 19:44 | 35.17068 | -97.16508 | 35799 ft | 456 kts | 345° |
| 2026-05-05 19:45 | 35.23410 | -97.16486 | 35808 ft | 456 kts | 345° |
| 2026-05-05 19:45 | 35.29764 | -97.16464 | 35821 ft | 457 kts | 345° |
| 2026-05-05 19:46 | 35.35057 | -97.16453 | 35812 ft | 457 kts | 345° |
| 2026-05-05 19:46 | 35.41422 | -97.16470 | 35822 ft | 456 kts | 345° |
| 2026-05-05 19:47 | 35.47786 | -97.16434 | 35810 ft | 457 kts | 346° |
| 2026-05-05 19:47 | 35.54143 | -97.16396 | 35820 ft | 458 kts | 345° |
| 2026-05-05 19:48 | 35.60517 | -97.16370 | 35827 ft | 458 kts | 345° |
| 2026-05-05 19:48 | 35.66887 | -97.16348 | 35838 ft | 458 kts | 345° |
| 2026-05-05 19:49 | 35.73254 | -97.16327 | 35850 ft | 458 kts | 345° |
| 2026-05-05 19:49 | 35.79636 | -97.16308 | 35849 ft | 458 kts | 345° |
| 2026-05-05 19:50 | 35.86013 | -97.16281 | 35866 ft | 459 kts | 345° |
| 2026-05-05 19:50 | 35.92413 | -97.16266 | 35862 ft | 459 kts | 345° |
| 2026-05-05 19:51 | 35.98807 | -97.16247 | 35870 ft | 460 kts | 345° |
| 2026-05-05 19:51 | 36.05206 | -97.16235 | 35877 ft | 461 kts | 345° |
| 2026-05-05 19:52 | 36.11648 | -97.16213 | 35884 ft | 463 kts | 345° |
| 2026-05-05 19:52 | 36.18090 | -97.16200 | 35872 ft | 464 kts | 346° |
| 2026-05-05 19:53 | 36.24531 | -97.16170 | 35876 ft | 462 kts | 345° |
| 2026-05-05 19:53 | 36.30962 | -97.16143 | 35876 ft | 461 kts | 345° |
| 2026-05-05 19:54 | 36.37334 | -97.16121 | 35881 ft | 460 kts | 345° |
| 2026-05-05 19:54 | 36.43743 | -97.16103 | 35877 ft | 460 kts | 345° |
| 2026-05-05 19:55 | 36.50128 | -97.16080 | 35896 ft | 458 kts | 345° |
| 2026-05-05 19:55 | 36.56501 | -97.16057 | 35901 ft | 458 kts | 345° |
| 2026-05-05 19:56 | 36.62888 | -97.16039 | 35914 ft | 458 kts | 345° |
| 2026-05-05 19:56 | 36.69290 | -97.16026 | 36058 ft | 464 kts | 345° |
| 2026-05-05 19:56 | 36.72517 | -97.16012 | 36427 ft | 462 kts | 345° |
| 2026-05-05 19:57 | 36.75744 | -97.15805 | 36832 ft | 472 kts | 353° |
| 2026-05-05 19:57 | 36.79033 | -97.15112 | 36896 ft | 485 kts | 357° |
| 2026-05-05 19:57 | 36.82363 | -97.14244 | 36911 ft | 489 kts | 358° |
| 2026-05-05 19:58 | 36.88990 | -97.12354 | 36901 ft | 485 kts | 359° |
| 2026-05-05 19:58 | 36.95537 | -97.10510 | 36923 ft | 479 kts | 358° |
| 2026-05-05 19:59 | 37.02030 | -97.08768 | 36929 ft | 477 kts | 357° |
| 2026-05-05 19:59 | 37.08524 | -97.07060 | 36956 ft | 477 kts | 358° |
| 2026-05-05 20:00 | 37.15027 | -97.05355 | 36957 ft | 478 kts | 357° |
| 2026-05-05 20:00 | 37.21576 | -97.03617 | 36953 ft | 483 kts | 358° |
| 2026-05-05 20:01 | 37.28141 | -97.01846 | 36949 ft | 483 kts | 358° |
| 2026-05-05 20:01 | 37.34721 | -97.00081 | 36951 ft | 484 kts | 358° |
| 2026-05-05 20:02 | 37.41303 | -96.98318 | 36949 ft | 484 kts | 358° |
| 2026-05-05 20:02 | 37.47893 | -96.96545 | 36945 ft | 483 kts | 358° |
| 2026-05-05 20:03 | 37.54431 | -96.94788 | 36981 ft | 479 kts | 357° |
| 2026-05-05 20:03 | 37.60969 | -96.93041 | 36967 ft | 480 kts | 358° |
| 2026-05-05 20:04 | 37.67490 | -96.91277 | 36976 ft | 480 kts | 358° |
| 2026-05-05 20:04 | 37.74006 | -96.89518 | 36983 ft | 482 kts | 358° |
| 2026-05-05 20:05 | 37.80586 | -96.87742 | 36981 ft | 483 kts | 358° |
| 2026-05-05 20:05 | 37.87184 | -96.85955 | 36979 ft | 485 kts | 358° |
| 2026-05-05 20:06 | 37.93798 | -96.84165 | 36995 ft | 487 kts | 358° |
| 2026-05-05 20:06 | 38.00439 | -96.82354 | 36977 ft | 488 kts | 358° |
| 2026-05-05 20:07 | 38.07075 | -96.80537 | 36980 ft | 487 kts | 358° |
| 2026-05-05 20:07 | 38.13695 | -96.78727 | 36983 ft | 487 kts | 358° |
| 2026-05-05 20:08 | 38.20313 | -96.76917 | 36972 ft | 486 kts | 358° |
| 2026-05-05 20:08 | 38.26913 | -96.75107 | 36975 ft | 485 kts | 358° |
| 2026-05-05 20:09 | 38.33495 | -96.73300 | 36973 ft | 483 kts | 358° |
| 2026-05-05 20:09 | 38.40066 | -96.71491 | 36970 ft | 482 kts | 358° |
| 2026-05-05 20:10 | 38.46612 | -96.69686 | 36972 ft | 481 kts | 358° |
| 2026-05-05 20:10 | 38.53150 | -96.67882 | 36978 ft | 480 kts | 358° |
| 2026-05-05 20:11 | 38.59674 | -96.66078 | 36979 ft | 480 kts | 358° |
| 2026-05-05 20:11 | 38.66200 | -96.64270 | 36984 ft | 480 kts | 358° |
| 2026-05-05 20:12 | 38.72732 | -96.62456 | 36985 ft | 480 kts | 358° |
| 2026-05-05 20:12 | 38.79281 | -96.60634 | 36991 ft | 481 kts | 358° |
| 2026-05-05 20:13 | 38.85820 | -96.58814 | 36994 ft | 481 kts | 358° |
| 2026-05-05 20:13 | 38.92377 | -96.56983 | 37007 ft | 482 kts | 358° |
| 2026-05-05 20:14 | 38.98936 | -96.55147 | 37008 ft | 483 kts | 358° |
| 2026-05-05 20:14 | 39.05508 | -96.53304 | 37017 ft | 483 kts | 358° |
| 2026-05-05 20:15 | 39.12088 | -96.51457 | 37006 ft | 484 kts | 358° |
| 2026-05-05 20:15 | 39.18671 | -96.49607 | 37013 ft | 485 kts | 358° |
| 2026-05-05 20:16 | 39.25268 | -96.47747 | 37016 ft | 485 kts | 358° |
| 2026-05-05 20:16 | 39.31871 | -96.45879 | 37003 ft | 486 kts | 358° |
| 2026-05-05 20:17 | 39.38478 | -96.44009 | 37008 ft | 486 kts | 358° |
| 2026-05-05 20:17 | 39.45101 | -96.42131 | 37007 ft | 486 kts | 358° |
| 2026-05-05 20:18 | 39.51717 | -96.40252 | 37004 ft | 487 kts | 358° |
| 2026-05-05 20:18 | 39.58302 | -96.38377 | 36898 ft | 489 kts | 358° |
| 2026-05-05 20:18 | 39.61650 | -96.37430 | 36258 ft | 493 kts | 359° |
| 2026-05-05 20:19 | 39.64990 | -96.36478 | 35620 ft | 492 kts | 359° |
| 2026-05-05 20:19 | 39.68336 | -96.35518 | 34877 ft | 492 kts | 359° |
| 2026-05-05 20:19 | 39.71729 | -96.34546 | 34067 ft | 494 kts | 359° |
| 2026-05-05 20:19 | 39.75093 | -96.33585 | 33150 ft | 497 kts | 359° |
| 2026-05-05 20:20 | 39.78437 | -96.32623 | 32274 ft | 497 kts | 359° |
| 2026-05-05 20:20 | 39.81806 | -96.31659 | 31518 ft | 496 kts | 0° |
| 2026-05-05 20:20 | 39.85159 | -96.30681 | 30906 ft | 489 kts | 0° |
| 2026-05-05 20:20 | 39.88472 | -96.29724 | 30262 ft | 486 kts | 0° |
| 2026-05-05 20:21 | 39.91760 | -96.28782 | 29555 ft | 482 kts | 0° |
| 2026-05-05 20:21 | 39.95015 | -96.27844 | 28863 ft | 475 kts | 1° |
| 2026-05-05 20:21 | 39.98210 | -96.26919 | 28217 ft | 468 kts | 1° |
| 2026-05-05 20:21 | 40.01374 | -96.26012 | 27595 ft | 462 kts | 1° |
| 2026-05-05 20:22 | 40.04490 | -96.25106 | 26954 ft | 457 kts | 2° |
| 2026-05-05 20:22 | 40.07572 | -96.24214 | 26347 ft | 452 kts | 2° |
| 2026-05-05 20:22 | 40.10634 | -96.23334 | 25732 ft | 448 kts | 2° |
| 2026-05-05 20:22 | 40.13665 | -96.22462 | 25122 ft | 444 kts | 3° |
| 2026-05-05 20:23 | 40.16673 | -96.21593 | 24485 ft | 441 kts | 4° |
| 2026-05-05 20:23 | 40.19657 | -96.20729 | 23866 ft | 438 kts | 4° |
| 2026-05-05 20:23 | 40.22639 | -96.20032 | 23126 ft | 432 kts | 0° |
| 2026-05-05 20:23 | 40.25606 | -96.19564 | 22444 ft | 426 kts | 358° |
| 2026-05-05 20:24 | 40.28534 | -96.19177 | 21805 ft | 420 kts | 358° |
| 2026-05-05 20:24 | 40.31423 | -96.18800 | 21186 ft | 415 kts | 358° |
| 2026-05-05 20:24 | 40.34284 | -96.18407 | 20575 ft | 411 kts | 359° |
| 2026-05-05 20:24 | 40.37121 | -96.17995 | 19975 ft | 407 kts | 359° |
| 2026-05-05 20:25 | 40.39922 | -96.17575 | 19378 ft | 403 kts | 360° |
| 2026-05-05 20:25 | 40.42700 | -96.17151 | 18776 ft | 400 kts | 0° |
| 2026-05-05 20:25 | 40.45452 | -96.16729 | 18133 ft | 398 kts | 0° |
| 2026-05-05 20:25 | 40.48189 | -96.16309 | 17462 ft | 394 kts | 0° |
| 2026-05-05 20:26 | 40.49988 | -96.16033 | 17111 ft | 390 kts | 0° |
| 2026-05-05 20:26 | 40.52670 | -96.15620 | 16471 ft | 385 kts | 0° |
| 2026-05-05 20:26 | 40.55312 | -96.15265 | 15867 ft | 379 kts | 359° |
| 2026-05-05 20:26 | 40.57926 | -96.14954 | 15266 ft | 374 kts | 359° |
| 2026-05-05 20:27 | 40.60504 | -96.14647 | 14670 ft | 369 kts | 359° |
| 2026-05-05 20:27 | 40.63049 | -96.14342 | 14075 ft | 367 kts | 359° |
| 2026-05-05 20:27 | 40.65583 | -96.14033 | 13435 ft | 364 kts | 0° |
| 2026-05-05 20:27 | 40.68079 | -96.13695 | 12995 ft | 355 kts | 1° |
| 2026-05-05 20:28 | 40.70512 | -96.13336 | 12459 ft | 349 kts | 1° |
| 2026-05-05 20:28 | 40.72904 | -96.12978 | 11962 ft | 342 kts | 1° |
| 2026-05-05 20:28 | 40.75255 | -96.12628 | 11384 ft | 338 kts | 2° |
| 2026-05-05 20:28 | 40.77583 | -96.12284 | 10818 ft | 334 kts | 2° |
| 2026-05-05 20:29 | 40.79883 | -96.11946 | 10457 ft | 325 kts | 2° |
| 2026-05-05 20:29 | 40.82069 | -96.11625 | 10301 ft | 309 kts | 2° |
| 2026-05-05 20:29 | 40.84160 | -96.11317 | 10165 ft | 294 kts | 2° |
| 2026-05-05 20:29 | 40.86147 | -96.11023 | 10041 ft | 281 kts | 2° |
| 2026-05-05 20:30 | 40.88049 | -96.10743 | 9969 ft | 267 kts | 2° |
| 2026-05-05 20:30 | 40.89892 | -96.10354 | 9404 ft | 274 kts | 13° |
| 2026-05-05 20:30 | 40.91609 | -96.09199 | 8860 ft | 282 kts | 29° |
| 2026-05-05 20:30 | 40.93226 | -96.07760 | 8459 ft | 279 kts | 30° |
| 2026-05-05 20:31 | 40.94823 | -96.06306 | 8056 ft | 277 kts | 31° |
| 2026-05-05 20:31 | 40.96409 | -96.04868 | 7670 ft | 275 kts | 31° |
| 2026-05-05 20:31 | 40.97984 | -96.03447 | 7302 ft | 273 kts | 31° |
| 2026-05-05 20:31 | 40.99547 | -96.02048 | 6941 ft | 270 kts | 31° |
| 2026-05-05 20:32 | 41.01100 | -96.00660 | 6568 ft | 267 kts | 31° |
| 2026-05-05 20:32 | 41.02634 | -95.99291 | 6218 ft | 265 kts | 31° |
| 2026-05-05 20:32 | 41.04155 | -95.97935 | 5838 ft | 262 kts | 31° |
| 2026-05-05 20:32 | 41.05669 | -95.96590 | 5511 ft | 261 kts | 31° |
| 2026-05-05 20:33 | 41.07175 | -95.95246 | 5148 ft | 260 kts | 31° |
| 2026-05-05 20:33 | 41.08676 | -95.93909 | 4811 ft | 259 kts | 31° |
| 2026-05-05 20:33 | 41.10175 | -95.92569 | 4445 ft | 260 kts | 31° |
| 2026-05-05 20:33 | 41.11677 | -95.91232 | 4111 ft | 258 kts | 31° |
| 2026-05-05 20:34 | 41.13135 | -95.89929 | 3991 ft | 248 kts | 31° |
| 2026-05-05 20:34 | 41.14576 | -95.88762 | 3849 ft | 238 kts | 26° |
| 2026-05-05 20:34 | 41.16019 | -95.87747 | 3704 ft | 230 kts | 25° |
| 2026-05-05 20:34 | 41.17411 | -95.86779 | 3564 ft | 223 kts | 24° |
| 2026-05-05 20:35 | 41.18760 | -95.85827 | 3431 ft | 215 kts | 24° |
| 2026-05-05 20:35 | 41.20044 | -95.84922 | 3338 ft | 202 kts | 25° |
| 2026-05-05 20:35 | 41.21264 | -95.84092 | 3172 ft | 191 kts | 18° |
| 2026-05-05 20:35 | 41.22477 | -95.83686 | 3060 ft | 173 kts | 1° |
| 2026-05-05 20:36 | 41.23620 | -95.83795 | 2932 ft | 159 kts | 346° |
| 2026-05-05 20:36 | 41.24626 | -95.84228 | 2638 ft | 147 kts | 334° |
| 2026-05-05 20:36 | 41.25454 | -95.84949 | 2306 ft | 138 kts | 322° |
| 2026-05-05 20:36 | 41.26191 | -95.85685 | 1980 ft | 129 kts | 324° |
| 2026-05-05 20:37 | 41.26904 | -95.86373 | 1649 ft | 127 kts | 324° |
| 2026-05-05 20:37 | 41.27623 | -95.87050 | 1440 ft | 126 kts | 325° |
| 2026-05-05 20:37 | 41.28336 | -95.87730 | 1273 ft | 128 kts | 326° |
| 2026-05-05 20:37 | 41.29053 | -95.88409 | 1080 ft | 123 kts | 326° |
| 2026-05-05 20:38 | 41.29720 | -95.89032 | 986 ft | 108 kts | 325° |
| 2026-05-05 20:38 | 41.30212 | -95.89501 | 984 ft | 65 kts | 324° |
| 2026-05-05 20:38 | 41.30480 | -95.89753 | 988 ft | 22 kts | 324° |
| 2026-05-05 20:38 | 41.30559 | -95.89854 | 988 ft | 12 kts | 271° |
| 2026-05-05 20:39 | 41.30521 | -95.89936 | 986 ft | 9 kts | 237° |
| 2026-05-05 20:39 | 41.30486 | -95.90000 | 989 ft | 8 kts | 234° |
| 2026-05-05 20:39 | 41.30435 | -95.89998 | 989 ft | 8 kts | 147° |
| 2026-05-05 20:39 | 41.30389 | -95.89956 | 987 ft | 8 kts | 146° |
| 2026-05-05 20:40 | 41.30344 | -95.89913 | 987 ft | 8 kts | 143° |
| 2026-05-05 20:40 | 41.30301 | -95.89873 | 989 ft | 8 kts | 146° |
| 2026-05-05 20:40 | 41.30262 | -95.89830 | 986 ft | 7 kts | 124° |
| 2026-05-05 20:40 | 41.30227 | -95.89782 | 984 ft | 7 kts | 144° |
| 2026-05-05 20:41 | 41.30187 | -95.89746 | 985 ft | 7 kts | 147° |
| 2026-05-05 20:41 | 41.30147 | -95.89713 | 988 ft | 7 kts | 148° |
| 2026-05-05 20:41 | 41.30105 | -95.89693 | 983 ft | 6 kts | 188° |
| 2026-05-05 20:41 | 41.30095 | -95.89700 | 987 ft | 2 kts | 212° |
| 2026-05-05 20:42 | 41.30089 | -95.89722 | 986 ft | 4 kts | 269° |
| 2026-05-05 20:42 | 41.30098 | -95.89756 | 992 ft | 4 kts | 279° |
| 2026-05-05 20:42 | 41.30099 | -95.89777 | 989 ft | 2 kts | 275° |
| 2026-05-05 20:42 | 41.30099 | -95.89780 | 988 ft | 0 kts | 274° |